Aérodrome :
LOGIN :

S'inscrire | Disclaimer

   EN    FR    IT 

 










Légende :    VFR   VFR Marginal   IFR   IFR Intensif   IFR Très Intensif
Visi : 
Plafond : 
>= 8 km
>= 3000ft
5 à 8 km
1000 à 3000 ft
1500m à 5 km
500 à 1000 ft
800 à 1500m
200 à 500 ft
< 800m
< 200 ft
Symboles :   Orages  Brouillard  Fortes neiges  Fortes précipitations  Vent > 20 kt
SIGMETs :   Divers  Orages  Givrage  Turbulence  Onde Orograph.  Cendres Volcan.






- Altitude de l'aérodrome : 60 ft
- Code IATA : MJT


LGMT - Odysseas Elytis

DERNIER METAR :
  • 021220Z 22012KT 9999 BKN025 14/06 Q1009

METARs EXPIRÉS :
  • 021150Z 26008KT 9999 BKN025 14/06 Q1009
  • 021120Z 25012KT 9999 SCT025 14/04 Q1010
  • 021050Z 28008KT 9999 SCT025 14/04 Q1010
  • 021020Z 30008KT 9999 SCT025 13/04 Q1010
  • 020950Z 30009KT 9999 BKN025 12/04 Q1010

TAF TAF LGMT
Valide du 02 à 12h jusqu'au 02 à 21h UTC


021100Z 0212/0221 27015KT 9999 SCT025
PROB30
TEMPO 0212/0218 5000 RA SCT010 FEW018TCU OVC025
BECMG 0216/0218 33015KT



MET'MAP, la Météo Aéronautique d'un coup d'oeil ! - Copyright ORBIFLY Décembre 2007 - Disclaimer

ORBIFLY MET'MAP TEAM :

Programmation & Développement : Alexandra Zaïnal
Sur une idée originale de : Baudouin d'Aumeries
Assistance à la programmation : Marc-Olivier Méhu
Soutien technique & logistique : Manuel Goepfert

Contact : metmap@orbifly.com




SOURCES & CREDITS :

   NOAA